Time;durP1;ratioP1;P1;durP2;ratioP2;P2;SDS_P1;SDS_P2;PMS_P1;PMS_P2;Temp;Humidity;BMP_temperature;BMP_pressure;BME280_temperature;BME280_humidity;BME280_pressure;Samples;Min_cycle;Max_cycle;Signal;HPM_P1;HPM_P2
2023/07/13 00:00:46;;;;;;;12.75;11.27;;;20.30;99.90;;;;;;5030340;28;20078;-79
2023/07/13 00:03:13;;;;;;;16.98;13.00;;;20.20;99.90;;;;;;5030387;28;20043;-79
2023/07/13 00:05:39;;;;;;;18.80;12.27;;;20.20;99.90;;;;;;5029041;28;20137;-79
2023/07/13 00:08:05;;;;;;;20.77;14.25;;;20.20;99.90;;;;;;5028903;28;20029;-79
2023/07/13 00:10:31;;;;;;;18.42;13.63;;;20.20;99.90;;;;;;5030305;28;20383;-78
2023/07/13 00:12:57;;;;;;;17.08;11.93;;;20.20;99.90;;;;;;5030372;28;20037;-78
2023/07/13 00:15:26;;;;;;;14.90;11.73;;;20.20;99.90;;;;;;5030023;28;20025;-78
2023/07/13 00:17:53;;;;;;;16.95;14.20;;;20.30;99.90;;;;;;5030027;28;20022;-79
2023/07/13 00:20:21;;;;;;;23.98;18.00;;;20.30;99.90;;;;;;5028866;28;20113;-78
2023/07/13 00:22:48;;;;;;;19.67;17.45;;;20.30;99.90;;;;;;5030195;28;20013;-79
2023/07/13 00:25:15;;;;;;;17.27;14.50;;;20.20;99.90;;;;;;5028835;28;20048;-79
2023/07/13 00:27:42;;;;;;;20.83;16.08;;;20.30;99.90;;;;;;5028833;28;20482;-78
2023/07/13 00:30:08;;;;;;;31.38;27.98;;;20.30;99.90;;;;;;5030004;28;20064;-77
2023/07/13 00:32:35;;;;;;;60.80;55.45;;;20.20;99.90;;;;;;5028794;28;20532;-77
2023/07/13 00:35:01;;;;;;;77.57;71.22;;;20.00;99.90;;;;;;5028735;28;20026;-78
2023/07/13 00:37:28;;;;;;;49.63;45.03;;;19.90;99.90;;;;;;5028663;28;20065;-80
2023/07/13 00:39:54;;;;;;;40.60;36.83;;;19.90;99.90;;;;;;5029876;28;20045;-80
2023/07/13 00:42:20;;;;;;;28.17;24.80;;;19.90;99.90;;;;;;5029791;28;20025;-80
2023/07/13 00:45:21;;;;;;;23.48;20.98;;;19.90;99.90;;;;;;5029738;28;20078;-80
2023/07/13 00:47:46;;;;;;;32.22;29.05;;;19.90;99.90;;;;;;5050592;28;20036;-80
2023/07/13 00:50:15;;;;;;;21.33;18.45;;;19.90;99.90;;;;;;5017332;28;20030;-80
2023/07/13 00:52:44;;;;;;;25.50;22.67;;;19.70;99.90;;;;;;5010281;28;20049;-80
2023/07/13 00:55:12;;;;;;;74.40;66.85;;;19.70;99.90;;;;;;5008999;28;20103;-77
2023/07/13 00:57:38;;;;;;;42.17;37.30;;;19.70;99.90;;;;;;5008643;28;20383;-79
2023/07/13 01:00:06;;;;;;;52.55;47.78;;;19.70;99.90;;;;;;5009879;28;20030;-77
2023/07/13 01:02:33;;;;;;;44.20;40.50;;;19.70;99.90;;;;;;5009973;28;20099;-78
2023/07/13 01:04:59;;;;;;;34.90;31.50;;;19.70;99.90;;;;;;5008480;28;20038;-77
2023/07/13 01:07:25;;;;;;;26.17;23.40;;;19.70;99.90;;;;;;5008798;28;20037;-77
2023/07/13 01:09:50;;;;;;;20.10;15.10;;;19.70;99.90;;;;;;5013034;28;20086;-77
2023/07/13 01:12:16;;;;;;;19.27;17.38;;;19.70;99.90;;;;;;5013138;28;20437;-78
2023/07/13 01:14:42;;;;;;;17.58;15.75;;;19.70;99.90;;;;;;5013320;28;20022;-78
2023/07/13 01:17:11;;;;;;;22.13;19.92;;;19.80;99.90;;;;;;5013171;28;20488;-78
2023/07/13 01:19:43;;;;;;;19.38;17.40;;;19.80;99.90;;;;;;5013131;28;20025;-79
2023/07/13 01:22:15;;;;;;;20.15;18.05;;;19.80;99.90;;;;;;5011880;28;20095;-78
2023/07/13 01:24:43;;;;;;;17.90;16.25;;;19.80;99.90;;;;;;5011672;28;20034;-80
2023/07/13 01:27:10;;;;;;;16.83;15.10;;;19.80;99.90;;;;;;5013066;28;20037;-78
2023/07/13 01:29:41;;;;;;;17.75;15.75;;;19.70;99.90;;;;;;5011892;28;20025;-79
2023/07/13 01:32:12;;;;;;;20.23;17.05;;;19.70;99.90;;;;;;5012878;28;20536;-79
2023/07/13 01:34:42;;;;;;;20.17;18.08;;;19.50;99.90;;;;;;5013218;28;20386;-79
2023/07/13 01:37:09;;;;;;;19.90;16.48;;;19.50;99.90;;;;;;5012826;28;20367;-80
2023/07/13 01:39:35;;;;;;;15.55;13.80;;;19.40;99.90;;;;;;5012637;28;20030;-79
2023/07/13 01:42:00;;;;;;;14.98;13.48;;;19.40;99.90;;;;;;5011419;28;20071;-79
2023/07/13 01:44:26;;;;;;;14.75;13.05;;;19.30;99.90;;;;;;5011306;28;20487;-79
2023/07/13 01:46:52;;;;;;;15.50;12.98;;;19.20;99.90;;;;;;5011351;28;20037;-79
2023/07/13 01:49:17;;;;;;;15.45;12.38;;;19.20;99.90;;;;;;5012459;28;20475;-79
2023/07/13 01:51:43;;;;;;;16.33;11.93;;;19.20;99.90;;;;;;5012575;28;20034;-79
2023/07/13 01:54:09;;;;;;;16.75;12.40;;;19.30;99.90;;;;;;5012453;28;20038;-80
2023/07/13 01:56:34;;;;;;;17.02;13.15;;;19.30;99.90;;;;;;5011302;28;20387;-79
2023/07/13 01:59:00;;;;;;;12.60;11.02;;;19.40;99.90;;;;;;5011169;28;20026;-79
2023/07/13 02:01:25;;;;;;;15.48;13.05;;;19.40;99.90;;;;;;5012616;28;20025;-78
2023/07/13 02:03:51;;;;;;;13.65;12.25;;;19.40;99.90;;;;;;5011038;28;20056;-78
2023/07/13 02:06:17;;;;;;;14.52;12.45;;;19.40;99.90;;;;;;5012510;28;20051;-78
2023/07/13 02:08:42;;;;;;;13.10;11.38;;;19.40;99.90;;;;;;5012269;28;20026;-78
2023/07/13 02:11:08;;;;;;;15.02;11.98;;;19.40;99.90;;;;;;5010999;28;20049;-78
2023/07/13 02:13:34;;;;;;;13.45;12.10;;;19.40;99.90;;;;;;5012182;28;20091;-78
2023/07/13 02:16:00;;;;;;;19.75;16.42;;;19.40;99.90;;;;;;5012375;28;20030;-78
2023/07/13 02:18:26;;;;;;;19.27;16.85;;;19.40;99.90;;;;;;5012223;28;20071;-79
2023/07/13 02:20:51;;;;;;;17.80;15.40;;;19.40;99.90;;;;;;5010792;28;20026;-79
2023/07/13 02:23:17;;;;;;;18.67;16.23;;;19.40;99.90;;;;;;5012123;28;20054;-80
2023/07/13 02:25:43;;;;;;;14.88;13.30;;;19.30;99.90;;;;;;5012029;28;20080;-79
2023/07/13 02:28:08;;;;;;;18.80;14.88;;;19.40;99.90;;;;;;5012058;28;20105;-79
2023/07/13 02:30:35;;;;;;;21.40;19.13;;;19.30;99.90;;;;;;5010705;28;20167;-79
2023/07/13 02:33:01;;;;;;;19.13;17.20;;;19.30;99.90;;;;;;5010681;28;20439;-79
2023/07/13 02:35:26;;;;;;;18.67;16.85;;;19.20;99.90;;;;;;5010628;28;20050;-80
2023/07/13 02:37:52;;;;;;;19.60;17.45;;;19.20;99.90;;;;;;5011976;28;20022;-80
2023/07/13 02:40:17;;;;;;;19.23;17.17;;;19.20;99.90;;;;;;5010639;28;20432;-80
2023/07/13 02:42:43;;;;;;;22.40;19.10;;;19.20;99.90;;;;;;5010362;28;20067;-79
2023/07/13 02:45:09;;;;;;;21.65;18.75;;;19.10;99.90;;;;;;5010402;28;20041;-79
2023/07/13 02:47:35;;;;;;;19.85;17.75;;;19.10;99.90;;;;;;5010492;28;20030;-79
2023/07/13 02:50:02;;;;;;;19.15;17.15;;;19.00;99.90;;;;;;5011723;28;20364;-80
2023/07/13 02:52:27;;;;;;;21.17;19.17;;;19.00;99.90;;;;;;5010409;28;20030;-80
2023/07/13 02:54:53;;;;;;;21.55;19.02;;;19.00;99.90;;;;;;5011506;28;20392;-79
2023/07/13 02:57:19;;;;;;;19.50;17.42;;;19.00;99.90;;;;;;5011506;28;20115;-79
2023/07/13 02:59:44;;;;;;;26.20;23.63;;;19.00;99.90;;;;;;5011566;28;20021;-79
2023/07/13 03:02:10;;;;;;;36.55;32.92;;;19.00;99.90;;;;;;5011618;28;20029;-79
2023/07/13 03:04:36;;;;;;;26.98;24.08;;;18.90;99.90;;;;;;5011672;28;20441;-79
2023/07/13 03:07:03;;;;;;;24.33;20.95;;;18.90;99.90;;;;;;5010169;28;20043;-79
2023/07/13 03:09:29;;;;;;;21.98;17.73;;;18.80;99.90;;;;;;5010113;28;20386;-79
2023/07/13 03:11:55;;;;;;;21.58;18.30;;;18.80;99.90;;;;;;5010022;28;20033;-78
2023/07/13 03:14:23;;;;;;;27.60;24.70;;;18.60;99.90;;;;;;5011298;28;20052;-79
2023/07/13 03:16:49;;;;;;;22.73;20.33;;;18.60;99.90;;;;;;5011321;28;20026;-79
2023/07/13 03:19:15;;;;;;;19.33;17.40;;;18.60;99.90;;;;;;5009941;28;20080;-80
2023/07/13 03:21:40;;;;;;;18.88;16.42;;;18.70;99.90;;;;;;5011491;28;20030;-79
2023/07/13 03:24:06;;;;;;;17.52;15.73;;;18.70;99.90;;;;;;5009926;28;20030;-80
2023/07/13 03:26:32;;;;;;;19.13;16.42;;;18.70;99.90;;;;;;5010089;28;20109;-79
2023/07/13 03:28:57;;;;;;;20.00;17.60;;;18.70;99.90;;;;;;5011033;28;20021;-79
2023/07/13 03:31:28;;;;;;;20.75;16.92;;;18.80;99.90;;;;;;5009257;28;20029;-79
2023/07/13 03:33:54;;;;;;;20.27;18.00;;;18.70;99.90;;;;;;5009738;28;20033;-80
2023/07/13 03:36:23;;;;;;;36.22;32.42;;;18.80;99.90;;;;;;5009777;28;20026;-79
2023/07/13 03:38:51;;;;;;;90.57;82.00;;;18.80;99.90;;;;;;5010886;28;20447;-80
2023/07/13 03:41:17;;;;;;;97.30;88.00;;;18.90;99.90;;;;;;5009635;28;20103;-80
2023/07/13 03:43:43;;;;;;;38.30;34.30;;;18.80;99.90;;;;;;5025295;28;20128;-80
2023/07/13 03:46:09;;;;;;;39.53;35.63;;;18.70;99.90;;;;;;5030477;28;20041;-80
2023/07/13 03:48:35;;;;;;;67.70;61.40;;;18.70;99.90;;;;;;5029197;28;20414;-80
2023/07/13 03:51:01;;;;;;;41.33;37.22;;;18.70;99.90;;;;;;5029334;28;20025;-80
2023/07/13 03:53:27;;;;;;;37.10;33.30;;;18.80;99.90;;;;;;5028976;28;20050;-80
2023/07/13 03:55:52;;;;;;;29.15;25.27;;;18.80;99.90;;;;;;5029481;28;20026;-80
2023/07/13 03:58:31;;;;;;;27.20;21.90;;;18.80;99.90;;;;;;5030439;28;20037;-80
2023/07/13 04:00:57;;;;;;;25.73;22.90;;;18.90;99.90;;;;;;5029086;28;20504;-80
2023/07/13 04:03:24;;;;;;;27.20;22.58;;;18.90;99.90;;;;;;5029635;28;20018;-80
2023/07/13 04:05:50;;;;;;;23.63;20.42;;;19.00;99.90;;;;;;5030403;28;20022;-80
2023/07/13 04:08:15;;;;;;;21.55;19.10;;;19.00;99.90;;;;;;5030463;28;20048;-80
2023/07/13 04:10:41;;;;;;;25.17;18.85;;;19.10;99.90;;;;;;5029107;28;20060;-80
2023/07/13 04:13:07;;;;;;;21.75;19.58;;;19.10;99.90;;;;;;5030252;28;20017;-80
2023/07/13 04:15:33;;;;;;;22.00;18.02;;;19.20;99.90;;;;;;5030310;28;20127;-80
2023/07/13 04:17:59;;;;;;;19.80;16.77;;;19.20;99.90;;;;;;5028932;28;20022;-80
2023/07/13 04:20:25;;;;;;;33.90;30.60;;;19.30;99.90;;;;;;5030269;28;20037;-80
2023/07/13 04:22:53;;;;;;;42.20;37.90;;;19.40;99.90;;;;;;5030266;28;20053;-80
2023/07/13 04:25:20;;;;;;;57.90;52.05;;;19.50;99.90;;;;;;5030008;28;20375;-80
2023/07/13 04:27:45;;;;;;;42.05;34.00;;;19.60;99.90;;;;;;5028927;28;20029;-80
2023/07/13 04:30:11;;;;;;;25.73;19.48;;;19.60;99.90;;;;;;5028785;28;20022;-81
2023/07/13 04:32:37;;;;;;;23.17;16.23;;;19.60;99.90;;;;;;5028190;28;20048;-81
2023/07/13 04:35:03;;;;;;;21.27;16.75;;;19.60;99.90;;;;;;5029888;28;20028;-81
2023/07/13 04:37:29;;;;;;;30.83;27.88;;;19.60;99.90;;;;;;5028601;28;20489;-80
2023/07/13 04:39:54;;;;;;;36.05;32.67;;;19.70;99.90;;;;;;5029909;28;20048;-80
2023/07/13 04:42:20;;;;;;;21.60;16.30;;;19.80;99.90;;;;;;5028691;28;20025;-80
2023/07/13 04:44:50;;;;;;;15.30;13.68;;;19.80;99.90;;;;;;5033395;28;20061;-79
2023/07/13 04:47:16;;;;;;;17.92;12.63;;;19.70;99.90;;;;;;5033429;28;20036;-79
2023/07/13 04:49:42;;;;;;;15.02;11.95;;;19.70;99.90;;;;;;5032165;28;20028;-80
2023/07/13 04:52:08;;;;;;;21.52;19.00;;;19.70;99.90;;;;;;5032206;28;20386;-79
2023/07/13 04:54:34;;;;;;;27.23;24.65;;;19.80;99.90;;;;;;5031933;28;20053;-80
2023/07/13 04:57:00;;;;;;;16.17;13.63;;;19.80;99.90;;;;;;5029464;28;20382;-80
2023/07/13 04:59:26;;;;;;;19.17;17.42;;;19.90;99.90;;;;;;5017120;28;20046;-80
2023/07/13 05:01:52;;;;;;;11.98;10.70;;;20.00;99.90;;;;;;5015479;28;20102;-78
2023/07/13 05:04:18;;;;;;;12.60;11.15;;;20.00;99.90;;;;;;5015142;28;20034;-79
2023/07/13 05:06:44;;;;;;;12.02;9.52;;;20.00;99.90;;;;;;5014957;28;20138;-80
2023/07/13 05:09:09;;;;;;;14.68;11.63;;;20.10;99.90;;;;;;5017961;28;20478;-79
2023/07/13 05:11:35;;;;;;;14.20;10.50;;;20.10;99.90;;;;;;5029903;28;20017;-80
2023/07/13 05:14:01;;;;;;;11.05;9.23;;;20.20;99.90;;;;;;5030684;28;20106;-79
2023/07/13 05:16:27;;;;;;;12.38;9.82;;;20.10;99.90;;;;;;5029749;28;20021;-80
2023/07/13 05:18:53;;;;;;;11.20;9.27;;;20.20;99.90;;;;;;5031564;28;20082;-81
2023/07/13 05:21:19;;;;;;;15.68;8.80;;;20.30;99.90;;;;;;5031884;28;20029;-80
2023/07/13 05:23:44;;;;;;;12.00;9.88;;;20.50;99.90;;;;;;5031590;28;20386;-80
2023/07/13 05:26:11;;;;;;;16.20;9.80;;;20.60;99.90;;;;;;5029910;28;20044;-79
2023/07/13 05:28:37;;;;;;;14.43;10.05;;;20.70;99.90;;;;;;5028498;28;20029;-80
2023/07/13 05:31:04;;;;;;;15.35;10.88;;;20.80;99.90;;;;;;5030799;28;20074;-80
2023/07/13 05:33:29;;;;;;;14.43;9.82;;;20.90;99.90;;;;;;5023203;28;20026;-79
2023/07/13 05:35:55;;;;;;;16.27;10.23;;;21.00;99.90;;;;;;5022639;28;20457;-78
2023/07/13 05:38:21;;;;;;;14.60;11.57;;;21.10;99.90;;;;;;5023221;28;20056;-79
2023/07/13 05:40:47;;;;;;;17.42;11.27;;;21.20;99.90;;;;;;5020969;28;20459;-79
2023/07/13 05:43:13;;;;;;;18.25;10.65;;;21.40;99.90;;;;;;5026884;28;20036;-79
2023/07/13 05:45:40;;;;;;;21.63;11.48;;;21.50;99.90;;;;;;5018160;28;20045;-80
2023/07/13 05:48:06;;;;;;;16.25;10.82;;;21.60;99.90;;;;;;5030338;28;20420;-80
2023/07/13 05:50:31;;;;;;;19.02;9.82;;;21.70;99.90;;;;;;5029381;28;20033;-80
2023/07/13 05:52:57;;;;;;;16.08;9.48;;;21.80;99.90;;;;;;5031367;28;20060;-80
2023/07/13 05:55:23;;;;;;;12.13;8.23;;;21.90;99.90;;;;;;5029409;28;20482;-79
2023/07/13 05:57:48;;;;;;;19.02;9.23;;;22.00;99.90;;;;;;5031557;28;20065;-79
2023/07/13 06:00:15;;;;;;;23.73;10.45;;;22.10;99.90;;;;;;5026364;28;20054;-79
2023/07/13 06:02:41;;;;;;;28.58;9.98;;;22.20;99.90;;;;;;5020907;28;20030;-81
2023/07/13 06:05:06;;;;;;;18.67;9.18;;;22.20;99.90;;;;;;5019690;28;20163;-80
2023/07/13 06:07:32;;;;;;;23.65;9.25;;;22.40;99.90;;;;;;5020262;28;20033;-81
2023/07/13 06:09:59;;;;;;;23.00;8.93;;;22.40;99.90;;;;;;5019579;28;20142;-80
2023/07/13 06:12:25;;;;;;;17.85;9.90;;;22.50;99.90;;;;;;5020609;28;20396;-79
2023/07/13 06:14:51;;;;;;;23.67;10.38;;;22.70;99.90;;;;;;5019268;28;20069;-79
2023/07/13 06:17:16;;;;;;;20.13;10.65;;;22.80;99.90;;;;;;5019490;28;20049;-81
2023/07/13 06:19:42;;;;;;;19.67;9.70;;;22.80;99.90;;;;;;5027295;28;20036;-81
2023/07/13 06:22:08;;;;;;;17.13;10.07;;;22.90;99.90;;;;;;5022238;28;20036;-79
2023/07/13 06:24:33;;;;;;;23.15;9.50;;;23.00;99.90;;;;;;5017880;28;20133;-79
2023/07/13 06:26:59;;;;;;;21.55;9.63;;;23.00;99.90;;;;;;5015725;28;20450;-81
2023/07/13 06:29:24;;;;;;;21.15;8.02;;;23.10;99.90;;;;;;5015594;28;20467;-80
2023/07/13 06:31:50;;;;;;;13.20;7.22;;;23.20;99.90;;;;;;5028976;28;20042;-79
2023/07/13 06:34:16;;;;;;;9.18;6.22;;;23.20;99.90;;;;;;5022529;28;20104;-80
2023/07/13 06:36:41;;;;;;;12.95;6.25;;;23.20;99.90;;;;;;5013389;28;20030;-80
2023/07/13 06:39:07;;;;;;;7.82;5.38;;;23.20;99.90;;;;;;5014291;28;20581;-80
2023/07/13 06:41:33;;;;;;;29.48;8.82;;;23.20;99.90;;;;;;5026262;28;20035;-80
2023/07/13 06:43:59;;;;;;;8.35;5.70;;;23.20;99.90;;;;;;5022120;28;20028;-79
2023/07/13 06:46:25;;;;;;;17.05;6.72;;;23.30;99.90;;;;;;5021124;28;20406;-78
2023/07/13 06:48:51;;;;;;;7.82;5.20;;;23.30;99.90;;;;;;5016592;28;20485;-80
2023/07/13 06:51:16;;;;;;;10.38;5.85;;;23.30;99.90;;;;;;5016761;28;20083;-80
2023/07/13 06:53:43;;;;;;;26.88;7.25;;;23.40;99.90;;;;;;5018789;28;20121;-80
2023/07/13 06:56:10;;;;;;;14.95;6.13;;;23.50;99.90;;;;;;5019522;28;20018;-80
2023/07/13 06:58:36;;;;;;;10.77;5.70;;;23.40;99.90;;;;;;5019841;28;20034;-80
2023/07/13 07:01:03;;;;;;;14.30;5.25;;;23.60;99.90;;;;;;5018901;28;20096;-80
2023/07/13 07:03:28;;;;;;;5.90;4.90;;;23.50;99.10;;;;;;5020587;27;20086;-80
2023/07/13 07:05:59;;;;;;;7.63;4.45;;;23.70;99.90;;;;;;5018338;28;20402;-80
2023/07/13 07:08:25;;;;;;;9.30;4.60;;;23.90;99.90;;;;;;5019527;28;20038;-82
2023/07/13 07:10:53;;;;;;;7.18;5.55;;;23.90;98.30;;;;;;5011464;28;20079;-81
2023/07/13 07:13:19;;;;;;;6.45;5.07;;;24.20;99.90;;;;;;5016863;28;20436;-81
2023/07/13 07:15:49;;;;;;;7.40;5.40;;;24.10;99.90;;;;;;5018727;28;20109;-81
2023/07/13 07:18:15;;;;;;;5.93;4.72;;;24.30;99.90;;;;;;5017628;28;20061;-82
2023/07/13 07:20:40;;;;;;;5.20;4.60;;;24.20;91.70;;;;;;5017528;28;20486;-82
2023/07/13 07:23:06;;;;;;;6.65;4.70;;;24.00;90.90;;;;;;5022847;28;20475;-82
2023/07/13 07:25:34;;;;;;;8.57;5.35;;;24.10;96.20;;;;;;5029689;28;20086;-81
2023/07/13 07:27:59;;;;;;;6.38;4.90;;;24.10;93.70;;;;;;5029729;28;20093;-80
2023/07/13 07:30:25;;;;;;;7.97;4.10;;;24.10;97.60;;;;;;5028521;28;20116;-81
2023/07/13 07:32:51;;;;;;;5.18;4.10;;;24.20;94.40;;;;;;5029765;28;20029;-82
2023/07/13 07:35:16;;;;;;;9.57;4.93;;;24.10;93.40;;;;;;5028492;28;20054;-80
2023/07/13 07:37:42;;;;;;;4.85;4.35;;;24.10;95.40;;;;;;5026645;28;20392;-82
2023/07/13 07:40:08;;;;;;;4.80;4.22;;;24.10;91.00;;;;;;5009635;28;20075;-80
2023/07/13 07:42:34;;;;;;;3.75;3.45;;;24.20;88.20;;;;;;5010916;28;20022;-82
2023/07/13 07:45:00;;;;;;;6.85;4.53;;;24.20;89.10;;;;;;5010653;28;20037;-80
2023/07/13 07:47:26;;;;;;;3.90;3.58;;;24.20;87.40;;;;;;5010731;28;20022;-81
2023/07/13 07:49:52;;;;;;;8.70;4.18;;;24.20;84.60;;;;;;5010758;28;20022;-82
2023/07/13 07:52:18;;;;;;;10.63;5.03;;;24.20;82.50;;;;;;4993208;28;20030;-81
2023/07/13 07:54:44;;;;;;;5.70;4.00;;;24.10;82.80;;;;;;5010630;28;20061;-82
2023/07/13 07:57:09;;;;;;;4.90;4.13;;;24.20;82.20;;;;;;5010819;28;20022;-81
2023/07/13 07:59:36;;;;;;;11.00;4.70;;;24.20;82.50;;;;;;5009482;28;20018;-81
2023/07/13 08:02:02;;;;;;;6.05;4.38;;;24.20;82.50;;;;;;5010068;28;20105;-81
2023/07/13 08:04:28;;;;;;;6.13;4.47;;;24.30;83.80;;;;;;5007614;28;20094;-80
2023/07/13 08:06:56;;;;;;;6.57;4.07;;;24.20;82.50;;;;;;5008207;28;20071;-81
2023/07/13 08:09:21;;;;;;;5.13;4.63;;;24.40;81.80;;;;;;5008456;28;20523;-82
2023/07/13 08:11:47;;;;;;;14.75;5.32;;;24.50;80.30;;;;;;5007302;28;20018;-81
2023/07/13 08:14:14;;;;;;;7.05;4.40;;;24.60;82.50;;;;;;5007941;28;20084;-80
2023/07/13 08:16:39;;;;;;;6.22;4.03;;;24.60;81.10;;;;;;5009290;28;20014;-81
2023/07/13 08:19:06;;;;;;;8.15;4.20;;;24.80;80.30;;;;;;5011124;28;20030;-81
2023/07/13 08:21:31;;;;;;;6.20;4.43;;;25.00;79.30;;;;;;5009483;28;20113;-81
2023/07/13 08:23:57;;;;;;;6.13;4.03;;;25.10;81.90;;;;;;5010884;28;20124;-82
2023/07/13 08:26:23;;;;;;;5.35;4.47;;;25.30;78.10;;;;;;5010628;28;20030;-82
2023/07/13 08:28:48;;;;;;;5.30;4.35;;;25.40;77.90;;;;;;5012791;28;20030;-81
2023/07/13 08:31:14;;;;;;;5.05;3.95;;;25.30;75.90;;;;;;5013740;28;20037;-81
2023/07/13 08:33:40;;;;;;;6.88;4.13;;;25.30;76.80;;;;;;5014033;28;20033;-82
2023/07/13 08:36:07;;;;;;;9.80;4.90;;;25.30;74.70;;;;;;5012699;28;20029;-81
2023/07/13 08:38:33;;;;;;;5.15;4.47;;;25.40;76.00;;;;;;5012602;28;20018;-82
2023/07/13 08:40:59;;;;;;;4.93;4.47;;;25.30;75.10;;;;;;5013859;28;20026;-81
2023/07/13 08:43:30;;;;;;;6.70;5.75;;;25.30;75.60;;;;;;5013687;28;20432;-82
2023/07/13 08:46:33;;;;;;;6.67;5.77;;;25.20;76.70;;;;;;5013762;28;20057;-81
2023/07/13 08:49:09;;;;;;;7.10;6.00;;;25.00;79.00;;;;;;5013779;28;20030;-82
2023/07/13 08:52:08;;;;;;;7.35;6.85;;;25.00;79.20;;;;;;5013731;28;20032;-82
2023/07/13 08:54:41;;;;;;;8.85;8.18;;;24.80;81.70;;;;;;5002340;28;20054;-82
2023/07/13 08:57:19;;;;;;;5.45;4.95;;;24.80;86.60;;;;;;5013643;28;20049;-82
2023/07/13 08:59:45;;;;;;;5.20;4.55;;;24.70;88.30;;;;;;5012239;28;20022;-81
2023/07/13 09:02:37;;;;;;;12.65;11.68;;;24.60;88.20;;;;;;5013598;28;20026;-81
2023/07/13 09:05:24;;;;;;;5.45;4.70;;;24.60;90.70;;;;;;5012563;28;20030;-81
2023/07/13 09:08:01;;;;;;;5.88;5.28;;;24.60;91.90;;;;;;5013625;28;20112;-81
2023/07/13 09:10:34;;;;;;;5.22;4.72;;;24.70;93.60;;;;;;5012107;28;20040;-82
2023/07/13 09:13:40;;;;;;;5.45;4.38;;;24.80;89.90;;;;;;5013422;28;20387;-81
2023/07/13 09:16:07;;;;;;;4.32;3.97;;;24.70;90.30;;;;;;5013416;28;20379;-81
2023/07/13 09:18:41;;;;;;;6.15;4.65;;;24.70;88.60;;;;;;5012140;28;20111;-80
2023/07/13 09:21:29;;;;;;;6.03;4.10;;;24.60;87.90;;;;;;5011982;28;20051;-81
2023/07/13 09:24:17;;;;;;;4.80;4.38;;;24.60;89.40;;;;;;5013182;28;20463;-81
2023/07/13 09:26:42;;;;;;;5.25;4.63;;;24.50;89.20;;;;;;5012014;28;20407;-80
2023/07/13 09:29:23;;;;;;;5.68;4.50;;;24.40;91.90;;;;;;5011044;28;20022;-82
2023/07/13 09:31:53;;;;;;;4.80;4.38;;;24.30;92.30;;;;;;5011890;28;20029;-82
2023/07/13 09:34:19;;;;;;;6.38;4.93;;;24.20;92.00;;;;;;5013163;28;20075;-82
2023/07/13 09:36:45;;;;;;;4.85;4.35;;;24.20;90.70;;;;;;5011622;28;20029;-82
2023/07/13 09:39:14;;;;;;;8.57;5.25;;;24.20;90.50;;;;;;5011592;28;20026;-82
2023/07/13 09:42:07;;;;;;;4.57;4.18;;;24.30;88.70;;;;;;5011785;28;20030;-81
2023/07/13 09:44:38;;;;;;;5.10;4.47;;;24.30;85.30;;;;;;5012890;28;20030;-80
2023/07/13 09:47:20;;;;;;;6.30;4.65;;;24.30;85.10;;;;;;5012449;28;20032;-82
2023/07/13 09:49:47;;;;;;;5.00;4.53;;;24.50;87.60;;;;;;5011583;28;20372;-80
2023/07/13 09:52:15;;;;;;;5.03;4.60;;;24.70;84.40;;;;;;5011620;28;20108;-81
2023/07/13 09:54:48;;;;;;;6.72;5.57;;;24.90;85.00;;;;;;5011190;28;20046;-82
2023/07/13 09:57:17;;;;;;;6.47;4.63;;;24.70;82.10;;;;;;5011440;28;20033;-82
2023/07/13 09:59:48;;;;;;;5.43;4.38;;;24.70;81.10;;;;;;5011387;28;20491;-80
2023/07/13 10:02:28;;;;;;;5.80;4.82;;;24.80;81.40;;;;;;5011593;28;20041;-81
2023/07/13 10:05:03;;;;;;;5.53;4.47;;;24.80;82.70;;;;;;5012199;28;20042;-81
2023/07/13 10:07:30;;;;;;;10.23;5.28;;;24.70;81.40;;;;;;5011153;28;20032;-81
2023/07/13 10:09:58;;;;;;;5.80;4.68;;;24.80;80.00;;;;;;5012506;28;20022;-82
2023/07/13 10:12:24;;;;;;;4.60;4.20;;;24.70;80.00;;;;;;5011170;28;20398;-82
2023/07/13 10:15:18;;;;;;;7.93;4.50;;;24.50;81.40;;;;;;5012401;28;20417;-81
2023/07/13 10:17:44;;;;;;;5.20;4.70;;;24.30;80.60;;;;;;5011150;28;20190;-80
2023/07/13 10:20:12;;;;;;;4.13;3.72;;;24.10;82.00;;;;;;5012436;28;20072;-82
2023/07/13 10:22:47;;;;;;;7.60;5.45;;;23.90;85.10;;;;;;5011411;28;20022;-80
2023/07/13 10:25:22;;;;;;;6.32;5.50;;;23.50;98.00;;;;;;5011033;28;20538;-80
2023/07/13 10:27:51;;;;;;;6.97;6.28;;;23.10;99.90;;;;;;5010959;28;20063;-83
2023/07/13 10:30:29;;;;;;;7.32;5.30;;;22.80;99.90;;;;;;5010817;28;20018;-80
2023/07/13 10:32:58;;;;;;;9.48;5.85;;;22.50;99.90;;;;;;5012261;28;20034;-83
2023/07/13 10:35:26;;;;;;;6.47;5.80;;;21.80;99.90;;;;;;5010851;28;20095;-81
2023/07/13 10:38:25;;;;;;;9.68;6.55;;;21.40;99.90;;;;;;5010940;28;20018;-79
2023/07/13 10:41:05;;;;;;;8.57;7.57;;;20.90;99.90;;;;;;5013092;28;20030;-80
2023/07/13 10:43:42;;;;;;;7.38;6.68;;;20.30;99.90;;;;;;5010792;28;20029;-81
2023/07/13 10:46:14;;;;;;;6.05;4.22;;;19.50;99.90;;;;;;5010703;28;20091;-81
2023/07/13 10:48:42;;;;;;;4.82;3.97;;;18.60;99.90;;;;;;5010745;28;20471;-80
2023/07/13 10:51:09;;;;;;;5.07;3.40;;;18.20;99.90;;;;;;5012052;28;20022;-80
2023/07/13 10:53:39;;;;;;;4.00;3.70;;;17.80;99.90;;;;;;5010327;28;20057;-80
2023/07/13 10:56:29;;;;;;;5.30;3.53;;;17.70;99.90;;;;;;5011807;28;20030;-79
2023/07/13 10:59:16;;;;;;;3.22;3.00;;;17.30;99.90;;;;;;5014931;28;20038;-80
2023/07/13 11:02:04;;;;;;;3.72;3.00;;;17.10;99.90;;;;;;5010483;28;20033;-79
2023/07/13 11:04:43;;;;;;;3.97;2.78;;;17.10;99.90;;;;;;5011736;28;20034;-81
2023/07/13 11:07:31;;;;;;;4.40;3.20;;;17.00;99.90;;;;;;5011809;28;20470;-79
2023/07/13 11:10:05;;;;;;;5.88;3.17;;;16.90;99.90;;;;;;5010355;28;20074;-80
2023/07/13 11:12:53;;;;;;;4.75;3.45;;;16.70;99.90;;;;;;5011541;28;20418;-80
2023/07/13 11:15:42;;;;;;;4.93;3.75;;;16.50;99.90;;;;;;5010395;28;20476;-80
2023/07/13 11:18:20;;;;;;;6.07;3.65;;;16.40;99.90;;;;;;5010394;28;20021;-80
2023/07/13 11:20:48;;;;;;;7.82;4.07;;;16.30;99.90;;;;;;5010386;28;20171;-81
2023/07/13 11:23:17;;;;;;;6.32;4.05;;;16.40;99.90;;;;;;5011601;28;20033;-81
2023/07/13 11:25:44;;;;;;;4.60;3.30;;;16.30;99.90;;;;;;5011443;28;20121;-81
2023/07/13 11:28:16;;;;;;;4.80;2.83;;;16.30;99.90;;;;;;5010218;28;20029;-81
2023/07/13 11:30:57;;;;;;;;;;;16.20;99.90;;;;;;5011896;28;20060;-81
2023/07/13 11:33:39;;;;;;;3.97;2.97;;;16.20;99.90;;;;;;5011347;28;19913;-81
2023/07/13 11:36:14;;;;;;;4.00;2.70;;;16.30;99.90;;;;;;5011211;28;20038;-82
2023/07/13 11:38:46;;;;;;;3.13;2.83;;;16.30;99.90;;;;;;5010011;28;20030;-81
2023/07/13 11:41:34;;;;;;;3.33;2.92;;;16.50;99.90;;;;;;5011245;28;20101;-81
2023/07/13 11:44:16;;;;;;;3.65;2.97;;;16.50;99.90;;;;;;5009900;28;20086;-81
2023/07/13 11:46:53;;;;;;;3.70;2.37;;;16.50;99.90;;;;;;5009862;28;20360;-81
2023/07/13 11:49:21;;;;;;;6.30;2.50;;;16.60;99.90;;;;;;5011053;28;20265;-81
2023/07/13 11:51:49;;;;;;;3.35;2.83;;;16.60;99.90;;;;;;5010650;28;20022;-81
2023/07/13 11:54:33;;;;;;;2.33;2.13;;;16.80;99.90;;;;;;5010786;28;20090;-81
2023/07/13 11:57:38;;;;;;;3.38;2.47;;;16.90;99.90;;;;;;5010720;28;20888;-81
2023/07/13 12:00:14;;;;;;;3.13;1.95;;;17.00;99.90;;;;;;5014923;28;20033;-81
2023/07/13 12:02:43;;;;;;;3.28;2.40;;;17.10;99.90;;;;;;5013052;28;20030;-81
2023/07/13 12:05:13;;;;;;;5.20;3.15;;;17.20;99.90;;;;;;5010704;28;20034;-81
2023/07/13 12:07:39;;;;;;;4.35;2.83;;;17.40;99.90;;;;;;5010892;28;20395;-81
2023/07/13 12:10:19;;;;;;;5.05;3.05;;;17.50;99.90;;;;;;5010760;28;20030;-81
2023/07/13 12:12:52;;;;;;;4.50;3.70;;;17.50;99.90;;;;;;5009439;28;20026;-80
2023/07/13 12:15:18;;;;;;;7.53;4.35;;;17.50;99.90;;;;;;5010636;28;20113;-81
2023/07/13 12:17:43;;;;;;;5.88;4.68;;;17.70;99.90;;;;;;5010762;28;20507;-81
2023/07/13 12:20:34;;;;;;;7.72;5.93;;;17.80;99.90;;;;;;5009411;28;20078;-81
2023/07/13 12:23:02;;;;;;;3.70;3.40;;;18.00;99.90;;;;;;5010809;28;20045;-81
2023/07/13 12:25:28;;;;;;;4.82;3.63;;;18.00;99.90;;;;;;5009159;28;20034;-81
2023/07/13 12:27:53;;;;;;;4.15;3.55;;;17.90;99.90;;;;;;5009399;28;20034;-81
2023/07/13 12:30:33;;;;;;;3.92;3.38;;;17.90;99.90;;;;;;5010575;28;20051;-81
2023/07/13 12:33:10;;;;;;;5.35;3.60;;;17.90;99.90;;;;;;5010635;28;20022;-82
2023/07/13 12:35:52;;;;;;;4.10;3.53;;;17.80;99.90;;;;;;5009398;28;20034;-81
2023/07/13 12:38:21;;;;;;;4.77;4.27;;;17.80;99.90;;;;;;5009217;28;20022;-81
2023/07/13 12:40:50;;;;;;;4.80;3.85;;;17.80;99.90;;;;;;5010453;28;20265;-80
2023/07/13 12:43:16;;;;;;;4.65;3.85;;;17.80;99.90;;;;;;5010451;28;20022;-82
2023/07/13 12:46:15;;;;;;;4.40;4.00;;;17.80;99.90;;;;;;5009145;28;20440;-81
2023/07/13 12:48:42;;;;;;;5.43;3.85;;;17.60;99.90;;;;;;5009163;28;20506;-81